Time;durP1;ratioP1;P1;durP2;ratioP2;P2;SDS_P1;SDS_P2;PMS_P1;PMS_P2;Temp;Humidity;BMP_temperature;BMP_pressure;BME280_temperature;BME280_humidity;BME280_pressure;Samples;Min_cycle;Max_cycle;Signal;HPM_P1;HPM_P2
2022/08/09 00:00:12;;;;;;;13.02;11.20;;;12.00;99.90;;;;;;8266026;28;20037;-82
2022/08/09 00:04:20;;;;;;;12.98;10.63;;;11.90;99.90;;;;;;8247294;28;20026;-82
2022/08/09 00:08:21;;;;;;;12.02;10.80;;;11.90;99.90;;;;;;8243606;28;20082;-81
2022/08/09 00:12:22;;;;;;;12.13;9.65;;;11.80;99.90;;;;;;8251223;28;20050;-81
2022/08/09 00:16:22;;;;;;;13.23;10.02;;;11.80;99.90;;;;;;8251413;28;20038;-81
2022/08/09 00:20:23;;;;;;;12.15;10.95;;;11.60;99.90;;;;;;8245067;28;20030;-82
2022/08/09 00:24:25;;;;;;;12.38;11.00;;;11.40;99.90;;;;;;8249642;28;20504;-81
2022/08/09 00:28:25;;;;;;;13.50;12.13;;;11.40;99.90;;;;;;8257853;28;20026;-82
2022/08/09 00:32:26;;;;;;;13.80;12.38;;;11.40;99.90;;;;;;8260936;28;20030;-81
2022/08/09 00:36:27;;;;;;;14.73;13.13;;;11.40;99.90;;;;;;8251545;28;20730;-82
2022/08/09 00:40:27;;;;;;;14.00;12.50;;;11.50;99.90;;;;;;8242929;28;20510;-82
2022/08/09 00:44:28;;;;;;;13.60;12.23;;;11.40;99.90;;;;;;8258335;28;20022;-80
2022/08/09 00:48:28;;;;;;;16.55;14.32;;;11.40;99.90;;;;;;8251168;28;20027;-82
2022/08/09 00:52:29;;;;;;;10.88;9.88;;;11.20;99.90;;;;;;8251026;28;20027;-81
2022/08/09 00:56:30;;;;;;;12.10;10.95;;;11.40;99.90;;;;;;8244617;28;20062;-81
2022/08/09 01:00:32;;;;;;;15.70;13.85;;;11.10;99.90;;;;;;8250567;28;20030;-82
2022/08/09 01:04:40;;;;;;;20.17;16.45;;;10.90;99.90;;;;;;8244548;28;20015;-81
2022/08/09 01:09:16;;;;;;;16.17;14.50;;;10.90;99.90;;;;;;8253896;28;20015;-82
2022/08/09 01:13:31;;;;;;;16.17;13.70;;;10.90;99.90;;;;;;8202032;28;20122;-81
2022/08/09 01:17:42;;;;;;;16.45;14.05;;;10.80;99.90;;;;;;8250810;28;20065;-81
2022/08/09 01:22:07;;;;;;;16.73;14.20;;;10.80;99.90;;;;;;8254466;28;20030;-82
2022/08/09 01:26:29;;;;;;;14.68;13.15;;;10.80;99.90;;;;;;8243278;28;20023;-80
2022/08/09 01:30:30;;;;;;;15.45;13.52;;;10.70;99.90;;;;;;8247541;28;20092;-81
2022/08/09 01:34:34;;;;;;;16.40;13.95;;;10.80;99.90;;;;;;8258857;28;20014;-80
2022/08/09 01:38:38;;;;;;;17.45;14.88;;;10.70;99.90;;;;;;8248661;28;20019;-81
2022/08/09 01:42:40;;;;;;;16.85;14.23;;;10.60;99.90;;;;;;8255392;28;20074;-82
2022/08/09 01:46:43;;;;;;;18.98;16.13;;;10.60;99.90;;;;;;8252505;28;20025;-80
2022/08/09 01:50:50;;;;;;;22.00;17.38;;;10.60;99.90;;;;;;8253735;28;20038;-81
2022/08/09 01:54:56;;;;;;;21.25;18.02;;;10.60;99.90;;;;;;8255327;28;20094;-81
2022/08/09 01:59:02;;;;;;;21.08;17.55;;;10.60;99.90;;;;;;8264989;28;20037;-82
2022/08/09 02:03:05;;;;;;;19.58;15.00;;;10.60;99.90;;;;;;8258258;28;20498;-82
2022/08/09 02:07:15;;;;;;;15.95;14.30;;;10.60;99.90;;;;;;8263335;28;20029;-82
2022/08/09 02:11:16;;;;;;;;;;;10.50;99.90;;;;;;8257137;28;20101;-82
2022/08/09 02:15:19;;;;;;;14.05;12.57;;;10.40;99.90;;;;;;8253207;28;19917;-82
2022/08/09 02:19:20;;;;;;;18.02;15.63;;;10.30;99.90;;;;;;8249905;28;20026;-80
2022/08/09 02:23:32;;;;;;;23.42;16.85;;;10.20;99.90;;;;;;8265010;28;20033;-80
2022/08/09 02:27:35;;;;;;;19.02;17.02;;;10.20;99.90;;;;;;8255651;28;20034;-82
2022/08/09 02:31:39;;;;;;;19.98;17.45;;;10.20;99.90;;;;;;8244302;28;20623;-82
2022/08/09 02:35:41;;;;;;;21.80;18.33;;;10.20;99.90;;;;;;8244150;28;20023;-82
2022/08/09 02:39:47;;;;;;;18.45;16.38;;;10.20;99.90;;;;;;8251445;28;20076;-81
2022/08/09 02:43:51;;;;;;;23.55;19.23;;;10.10;99.90;;;;;;8256794;28;20036;-80
2022/08/09 02:47:55;;;;;;;18.52;16.23;;;10.10;99.90;;;;;;8255539;28;20521;-82
2022/08/09 02:51:58;;;;;;;16.25;14.52;;;10.10;99.90;;;;;;8215831;23;20575;-78
2022/08/09 02:56:00;;;;;;;16.55;14.80;;;10.00;99.90;;;;;;8212325;28;20067;-77
2022/08/09 03:00:04;;;;;;;19.25;15.18;;;9.90;99.90;;;;;;8157843;28;20242;-77
2022/08/09 03:04:06;;;;;;;19.80;15.80;;;9.90;99.90;;;;;;8158024;28;20484;-77
2022/08/09 03:08:09;;;;;;;17.10;14.27;;;10.00;99.90;;;;;;8158217;28;20028;-78
2022/08/09 03:12:11;;;;;;;19.30;16.10;;;10.00;99.90;;;;;;8162028;28;20487;-77
2022/08/09 03:16:15;;;;;;;18.23;16.30;;;9.90;99.90;;;;;;8162878;28;20028;-77
2022/08/09 03:20:17;;;;;;;16.85;14.60;;;9.90;99.90;;;;;;8164284;28;20111;-77
2022/08/09 03:24:19;;;;;;;17.20;15.38;;;9.90;99.90;;;;;;8156454;28;20713;-77
2022/08/09 03:28:21;;;;;;;17.30;15.50;;;9.80;99.90;;;;;;8163769;28;20146;-77
2022/08/09 03:32:22;;;;;;;17.48;15.57;;;9.80;99.90;;;;;;8162967;28;20031;-79
2022/08/09 03:36:24;;;;;;;19.63;17.05;;;9.80;99.90;;;;;;8163168;28;20026;-77
2022/08/09 03:40:24;;;;;;;19.25;17.20;;;9.90;99.90;;;;;;8162401;28;20061;-77
2022/08/09 03:44:25;;;;;;;17.77;15.23;;;10.10;99.90;;;;;;8162667;28;20042;-77
2022/08/09 03:48:28;;;;;;;20.60;15.52;;;10.00;99.90;;;;;;8162388;28;20024;-77
2022/08/09 03:52:29;;;;;;;18.08;14.65;;;9.90;99.90;;;;;;8162500;28;20042;-77
2022/08/09 03:56:30;;;;;;;17.95;14.88;;;9.80;99.90;;;;;;8230970;28;20028;-77
2022/08/09 04:00:30;;;;;;;16.48;14.73;;;9.80;99.90;;;;;;8163342;28;20027;-78
2022/08/09 04:04:32;;;;;;;16.77;13.80;;;9.70;99.90;;;;;;8163010;28;20074;-77
2022/08/09 04:08:33;;;;;;;22.10;16.00;;;9.70;99.90;;;;;;8162609;28;20038;-76
2022/08/09 04:12:45;;;;;;;26.42;19.02;;;9.60;99.90;;;;;;8161992;28;20127;-78
2022/08/09 04:16:45;;;;;;;25.85;20.88;;;9.80;99.90;;;;;;8162862;28;20028;-77
2022/08/09 04:20:46;;;;;;;21.98;16.95;;;10.00;99.90;;;;;;8161092;28;20426;-77
2022/08/09 04:24:47;;;;;;;22.08;17.38;;;10.00;99.90;;;;;;8161654;28;20459;-77
2022/08/09 04:28:47;;;;;;;20.35;15.88;;;9.80;99.90;;;;;;8161440;28;20023;-77
2022/08/09 04:32:48;;;;;;;16.50;13.18;;;9.90;99.90;;;;;;8161320;28;20122;-77
2022/08/09 04:36:49;;;;;;;12.75;10.40;;;10.00;99.90;;;;;;8160401;28;20024;-78
2022/08/09 04:40:49;;;;;;;11.35;10.23;;;10.00;99.90;;;;;;8161444;28;20028;-78
2022/08/09 04:44:50;;;;;;;14.38;12.88;;;10.00;99.90;;;;;;8160671;28;20023;-77
2022/08/09 04:48:50;;;;;;;13.63;12.25;;;10.00;99.90;;;;;;8162049;28;20016;-78
2022/08/09 04:52:51;;;;;;;19.25;17.23;;;10.30;99.90;;;;;;8162171;28;20467;-77
2022/08/09 04:56:51;;;;;;;13.15;11.85;;;10.50;99.90;;;;;;8230543;28;20039;-78
2022/08/09 05:00:52;;;;;;;11.40;10.32;;;10.80;99.90;;;;;;8161065;28;20035;-78
2022/08/09 05:04:52;;;;;;;11.50;10.40;;;11.00;99.90;;;;;;8160153;28;20016;-78
2022/08/09 05:08:57;;;;;;;12.63;11.40;;;11.00;99.90;;;;;;8161964;28;20538;-77
2022/08/09 05:12:57;;;;;;;13.57;12.18;;;11.10;99.90;;;;;;8161586;28;20542;-77
2022/08/09 05:16:58;;;;;;;13.00;11.70;;;11.30;99.90;;;;;;8160211;28;20073;-77
2022/08/09 05:20:59;;;;;;;12.93;11.63;;;11.50;99.90;;;;;;8161469;28;20074;-77
2022/08/09 05:25:00;;;;;;;14.55;11.30;;;11.70;99.90;;;;;;8160981;28;20056;-78
2022/08/09 05:29:01;;;;;;;14.50;13.05;;;11.90;99.90;;;;;;8161428;28;20479;-78
2022/08/09 05:33:01;;;;;;;15.43;13.82;;;12.00;99.90;;;;;;8159084;28;20174;-77
2022/08/09 05:37:04;;;;;;;12.38;11.18;;;12.30;99.90;;;;;;8159764;28;20066;-78
2022/08/09 05:41:05;;;;;;;10.27;9.38;;;12.70;99.90;;;;;;8160955;28;20032;-77
2022/08/09 05:45:06;;;;;;;10.18;9.18;;;13.00;99.90;;;;;;8159274;28;20028;-78
2022/08/09 05:49:07;;;;;;;10.77;9.05;;;13.20;99.90;;;;;;8159510;28;20381;-78
2022/08/09 05:53:07;;;;;;;10.55;9.43;;;13.40;99.90;;;;;;8159671;28;20122;-77
2022/08/09 05:57:08;;;;;;;9.23;8.43;;;13.80;99.90;;;;;;8220470;28;20058;-77
2022/08/09 06:01:10;;;;;;;9.18;7.38;;;14.40;99.90;;;;;;8160993;28;20032;-78
2022/08/09 06:05:10;;;;;;;7.25;6.57;;;15.80;99.90;;;;;;8159004;28;20115;-78
2022/08/09 06:09:11;;;;;;;6.53;5.05;;;17.10;99.90;;;;;;8159776;28;20028;-78
2022/08/09 06:13:12;;;;;;;8.10;4.57;;;18.20;99.90;;;;;;8160801;28;20027;-78
2022/08/09 06:17:13;;;;;;;4.70;4.22;;;19.10;99.90;;;;;;8159907;28;20028;-77
2022/08/09 06:21:14;;;;;;;7.82;4.15;;;19.80;99.90;;;;;;8159046;28;20092;-78
2022/08/09 06:25:15;;;;;;;4.70;4.30;;;20.10;99.90;;;;;;8158500;28;20027;-78
2022/08/09 06:29:15;;;;;;;4.38;4.00;;;20.40;99.90;;;;;;8158964;28;20027;-78
2022/08/09 06:33:16;;;;;;;4.20;3.80;;;20.80;99.90;;;;;;8158005;28;20054;-78
2022/08/09 06:37:16;;;;;;;5.95;3.80;;;20.80;99.90;;;;;;8157933;28;20415;-78
2022/08/09 06:41:17;;;;;;;6.25;3.40;;;21.10;99.90;;;;;;8158296;28;20500;-78
2022/08/09 06:45:18;;;;;;;3.70;3.33;;;21.30;99.90;;;;;;8158832;28;20020;-78
2022/08/09 06:49:19;;;;;;;5.05;3.30;;;21.60;99.90;;;;;;8152862;28;20024;-78
2022/08/09 06:53:19;;;;;;;3.47;2.80;;;22.30;99.90;;;;;;8160533;28;20158;-78
2022/08/09 06:57:21;;;;;;;6.15;3.10;;;22.80;99.90;;;;;;8225507;28;20038;-78
2022/08/09 07:01:21;;;;;;;4.68;2.45;;;23.40;99.90;;;;;;8186598;28;20167;-78
2022/08/09 07:05:23;;;;;;;2.95;2.70;;;23.20;99.90;;;;;;8164689;28;20396;-78
2022/08/09 07:09:23;;;;;;;3.03;2.72;;;23.10;99.90;;;;;;8188123;28;20028;-78
2022/08/09 07:13:24;;;;;;;3.83;2.25;;;23.00;99.90;;;;;;8178978;28;20031;-78
2022/08/09 07:17:24;;;;;;;2.78;2.38;;;22.80;99.90;;;;;;8177892;28;20036;-78
2022/08/09 07:21:25;;;;;;;5.05;2.58;;;23.20;99.90;;;;;;8186030;28;20111;-78
2022/08/09 07:25:25;;;;;;;4.28;2.65;;;23.20;99.90;;;;;;8186783;28;20070;-78
2022/08/09 07:29:27;;;;;;;4.07;2.40;;;23.30;99.90;;;;;;8187126;28;20476;-79
2022/08/09 07:33:28;;;;;;;4.38;2.65;;;24.00;99.90;;;;;;8185375;28;20099;-78
2022/08/09 07:37:28;;;;;;;3.47;2.50;;;24.30;99.90;;;;;;8186723;28;20037;-78
2022/08/09 07:41:29;;;;;;;3.63;2.40;;;24.00;99.90;;;;;;8186426;28;20057;-78
2022/08/09 07:45:30;;;;;;;4.18;2.40;;;24.20;99.90;;;;;;8186917;28;20075;-79
2022/08/09 07:49:31;;;;;;;3.55;2.30;;;24.50;99.90;;;;;;8186683;28;20104;-79
2022/08/09 07:53:32;;;;;;;4.85;2.50;;;24.70;99.90;;;;;;8187111;28;20029;-78
2022/08/09 07:57:33;;;;;;;5.30;2.40;;;24.90;99.90;;;;;;8229552;28;20025;-78
2022/08/09 08:01:34;;;;;;;4.68;2.28;;;25.10;99.90;;;;;;8184982;28;20025;-78
2022/08/09 08:05:36;;;;;;;2.88;2.30;;;24.70;99.90;;;;;;8183601;28;20017;-78
2022/08/09 08:09:36;;;;;;;2.63;2.20;;;24.80;99.90;;;;;;8191916;28;20236;-78
2022/08/09 08:13:37;;;;;;;3.78;2.22;;;24.70;99.90;;;;;;8191425;28;20018;-78
2022/08/09 08:17:39;;;;;;;4.68;2.10;;;24.70;99.90;;;;;;8190299;28;20106;-78
2022/08/09 08:21:39;;;;;;;3.90;2.20;;;24.90;99.90;;;;;;8191376;28;20032;-78
2022/08/09 08:25:40;;;;;;;2.75;2.10;;;25.20;99.90;;;;;;8190639;28;20480;-80
2022/08/09 08:29:40;;;;;;;4.85;2.30;;;25.20;99.90;;;;;;8184293;28;20024;-79
2022/08/09 08:33:42;;;;;;;3.70;2.30;;;25.30;99.90;;;;;;8182951;28;20385;-79
2022/08/09 08:37:42;;;;;;;4.68;2.00;;;25.00;99.90;;;;;;8183512;28;20027;-79
2022/08/09 08:41:44;;;;;;;3.13;2.10;;;25.00;99.90;;;;;;8190447;28;20032;-78
2022/08/09 08:45:50;;;;;;;2.65;2.00;;;25.00;99.90;;;;;;8191395;28;20443;-80
2022/08/09 08:49:53;;;;;;;2.05;1.73;;;24.90;99.90;;;;;;8190302;28;20035;-79
2022/08/09 08:53:54;;;;;;;2.92;2.00;;;24.90;99.90;;;;;;8183247;23;20078;-86
2022/08/09 08:57:54;;;;;;;2.60;1.85;;;25.40;99.90;;;;;;8178561;28;20024;-84
2022/08/09 09:01:56;;;;;;;2.42;2.00;;;25.90;99.90;;;;;;8174900;28;20036;-84
2022/08/09 09:05:57;;;;;;;4.03;1.80;;;26.30;99.50;;;;;;8170002;28;20055;-84
2022/08/09 09:09:58;;;;;;;3.33;2.08;;;26.30;96.50;;;;;;8173096;28;20039;-84
2022/08/09 09:14:02;;;;;;;3.10;1.90;;;26.30;93.90;;;;;;8165148;28;20561;-85
2022/08/09 09:18:02;;;;;;;2.35;1.70;;;25.80;95.80;;;;;;8188764;29;20066;-84
2022/08/09 09:22:21;;;;;;;5.68;1.90;;;25.70;96.20;;;;;;8171479;28;20032;-85
2022/08/09 09:26:23;;;;;;;4.18;1.70;;;25.80;90.80;;;;;;8167600;28;20035;-85
2022/08/09 09:30:24;;;;;;;4.45;1.70;;;25.60;92.70;;;;;;8175930;28;20081;-84
2022/08/09 09:34:24;;;;;;;2.25;1.50;;;25.30;91.50;;;;;;8169946;28;20032;-86
2022/08/09 09:38:43;;;;;;;11.73;1.70;;;25.70;91.00;;;;;;8185743;29;20024;-85
2022/08/09 09:42:54;;;;;;;4.50;1.95;;;26.10;91.50;;;;;;8174192;28;20026;-84
2022/08/09 09:47:02;;;;;;;2.05;1.77;;;26.00;92.20;;;;;;8191453;28;20049;-83
2022/08/09 09:51:03;;;;;;;1.80;1.60;;;25.70;91.80;;;;;;8171067;28;20500;-84
2022/08/09 09:55:06;;;;;;;2.30;1.75;;;25.30;94.80;;;;;;8186709;28;20103;-84
2022/08/09 09:59:08;;;;;;;3.95;1.90;;;25.00;93.20;;;;;;8169630;28;20043;-84
2022/08/09 10:03:09;;;;;;;2.67;1.83;;;25.10;92.50;;;;;;8170398;28;20115;-85
2022/08/09 10:07:26;;;;;;;3.42;2.10;;;25.30;92.50;;;;;;8167665;28;20031;-85
2022/08/09 10:11:30;;;;;;;2.95;1.98;;;25.50;91.50;;;;;;8168940;28;20096;-84
2022/08/09 10:15:30;;;;;;;2.08;1.80;;;25.20;90.10;;;;;;8170821;28;20397;-85
2022/08/09 10:19:35;;;;;;;3.40;1.67;;;25.80;92.00;;;;;;8165540;28;20027;-84
2022/08/09 10:23:36;;;;;;;4.00;1.95;;;25.90;91.10;;;;;;8175659;28;20026;-85
2022/08/09 10:27:37;;;;;;;2.97;1.55;;;26.10;90.00;;;;;;8177273;28;20031;-86
2022/08/09 10:31:39;;;;;;;4.03;1.75;;;26.00;93.30;;;;;;8164711;28;20031;-84
2022/08/09 10:35:41;;;;;;;3.65;1.90;;;26.00;89.40;;;;;;8170773;28;20028;-85
2022/08/09 10:39:42;;;;;;;3.70;1.58;;;26.10;91.60;;;;;;8173830;29;20051;-84
2022/08/09 10:43:46;;;;;;;1.75;1.33;;;25.80;89.70;;;;;;8188697;28;20028;-84
2022/08/09 10:48:09;;;;;;;2.97;1.85;;;26.50;85.10;;;;;;8166202;28;20082;-85
2022/08/09 10:52:41;;;;;;;2.10;1.50;;;27.30;85.00;;;;;;8165770;28;20130;-85
2022/08/09 10:56:42;;;;;;;2.15;1.42;;;27.80;79.40;;;;;;8166623;28;20128;-85
2022/08/09 11:00:43;;;;;;;2.55;1.42;;;28.50;75.90;;;;;;8172123;29;20015;-84
2022/08/09 11:05:13;;;;;;;3.25;1.77;;;28.80;74.80;;;;;;8164399;28;20062;-85
2022/08/09 11:09:38;;;;;;;3.87;1.70;;;29.50;77.50;;;;;;8162139;28;20023;-85
2022/08/09 11:13:39;;;;;;;3.42;1.50;;;30.00;74.50;;;;;;8170325;28;20033;-84
2022/08/09 11:17:39;;;;;;;2.00;1.50;;;29.70;73.90;;;;;;8169735;28;20505;-85
2022/08/09 11:21:56;;;;;;;3.65;1.70;;;29.60;70.90;;;;;;8179282;28;20211;-84
2022/08/09 11:25:56;;;;;;;1.92;1.67;;;29.80;68.70;;;;;;8168354;28;20170;-85
2022/08/09 11:29:57;;;;;;;4.00;1.45;;;30.60;71.20;;;;;;8171601;28;20032;-84
2022/08/09 11:34:05;;;;;;;3.53;1.85;;;29.40;72.30;;;;;;8173303;28;20032;-85
2022/08/09 11:38:17;;;;;;;2.13;1.88;;;28.10;76.00;;;;;;8179057;29;20032;-84
2022/08/09 11:42:42;;;;;;;4.25;1.90;;;28.30;78.20;;;;;;8169381;28;20032;-84
2022/08/09 11:46:53;;;;;;;2.72;1.77;;;28.80;75.80;;;;;;8173683;28;20043;-85
2022/08/09 11:50:56;;;;;;;2.65;1.63;;;29.60;72.60;;;;;;8170697;28;20079;-84
2022/08/09 11:55:31;;;;;;;3.08;1.70;;;31.00;72.00;;;;;;8177704;28;20030;-85
2022/08/09 11:59:32;;;;;;;1.63;1.40;;;32.00;65.30;;;;;;8173774;28;20090;-85
2022/08/09 12:03:33;;;;;;;2.92;1.70;;;31.30;60.10;;;;;;8172262;29;20063;-84
2022/08/09 12:07:34;;;;;;;1.60;1.38;;;31.10;65.00;;;;;;8183182;28;20035;-84
2022/08/09 12:11:36;;;;;;;3.88;1.80;;;30.70;67.20;;;;;;8175454;28;20110;-84
2022/08/09 12:15:36;;;;;;;4.95;1.60;;;30.30;64.00;;;;;;8188325;29;20032;-85
2022/08/09 12:19:37;;;;;;;2.90;1.50;;;31.10;62.70;;;;;;8172579;28;20038;-85
2022/08/09 12:23:44;;;;;;;2.70;1.60;;;32.20;58.70;;;;;;8182370;28;20492;-85
2022/08/09 12:27:45;;;;;;;5.63;1.60;;;32.40;61.10;;;;;;8173541;28;20023;-85
2022/08/09 12:31:48;;;;;;;2.08;1.40;;;31.70;57.70;;;;;;8189584;28;20084;-84
2022/08/09 12:36:02;;;;;;;2.40;1.42;;;31.40;59.10;;;;;;8176804;28;20034;-85
2022/08/09 12:40:07;;;;;;;3.65;1.50;;;31.00;58.40;;;;;;8183949;28;20027;-85
2022/08/09 12:44:08;;;;;;;4.65;1.30;;;32.30;57.60;;;;;;8184302;28;20035;-84
2022/08/09 12:48:09;;;;;;;2.88;1.65;;;33.00;53.70;;;;;;8180766;29;20024;-86
2022/08/09 12:52:10;;;;;;;3.33;1.55;;;33.00;55.20;;;;;;8184341;28;20035;-84
2022/08/09 12:56:17;;;;;;;1.80;1.30;;;31.70;57.40;;;;;;8174312;28;20062;-84
2022/08/09 13:00:17;;;;;;;2.08;1.40;;;31.10;57.80;;;;;;8180927;28;20043;-85
2022/08/09 13:04:18;;;;;;;3.42;1.40;;;32.20;53.30;;;;;;8175687;28;20499;-84
2022/08/09 13:08:22;;;;;;;4.55;1.65;;;33.50;52.90;;;;;;8175674;28;20020;-85
2022/08/09 13:12:23;;;;;;;1.75;1.48;;;33.10;55.50;;;;;;8185108;28;20081;-84
2022/08/09 13:16:39;;;;;;;2.45;1.60;;;34.60;49.70;;;;;;8186212;29;20042;-85
2022/08/09 13:20:39;;;;;;;2.05;1.45;;;33.70;54.20;;;;;;8165240;28;20270;-84
2022/08/09 13:24:42;;;;;;;4.13;1.67;;;34.40;52.10;;;;;;8185617;28;20058;-86
2022/08/09 13:29:06;;;;;;;2.00;1.60;;;33.70;49.70;;;;;;8177254;29;20024;-85
2022/08/09 13:33:07;;;;;;;3.70;1.52;;;34.50;50.00;;;;;;8183923;29;20031;-84
2022/08/09 13:37:07;;;;;;;3.38;1.30;;;35.30;46.90;;;;;;8191214;28;20035;-84
2022/08/09 13:41:08;;;;;;;2.47;1.38;;;33.80;51.50;;;;;;8181405;29;20068;-85
2022/08/09 13:45:09;;;;;;;3.28;1.10;;;33.90;51.70;;;;;;8167494;28;20426;-86
2022/08/09 13:49:10;;;;;;;2.33;1.30;;;35.50;47.50;;;;;;8172125;28;20396;-85
2022/08/09 13:53:11;;;;;;;3.25;1.40;;;34.00;49.10;;;;;;8181091;28;20134;-84
2022/08/09 13:57:11;;;;;;;3.20;1.30;;;33.70;52.60;;;;;;8173965;28;20411;-85
2022/08/09 14:01:12;;;;;;;3.50;1.30;;;32.00;51.70;;;;;;8179336;28;20038;-84
2022/08/09 14:05:12;;;;;;;1.73;1.33;;;32.50;48.80;;;;;;8177927;28;20031;-84
2022/08/09 14:09:13;;;;;;;1.40;1.30;;;33.40;49.50;;;;;;8186050;29;20023;-85
2022/08/09 14:13:14;;;;;;;1.40;1.30;;;33.00;48.00;;;;;;8177969;28;20049;-85
2022/08/09 14:17:14;;;;;;;1.75;1.30;;;34.10;50.80;;;;;;8171085;28;20028;-84
2022/08/09 14:21:16;;;;;;;4.15;1.40;;;34.60;47.60;;;;;;8180481;28;20024;-85
2022/08/09 14:25:17;;;;;;;3.08;1.40;;;33.30;49.30;;;;;;8170287;28;20273;-84
2022/08/09 14:29:18;;;;;;;1.60;1.35;;;33.20;49.50;;;;;;8181845;28;20058;-84
2022/08/09 14:33:19;;;;;;;5.55;1.48;;;32.00;52.00;;;;;;8171026;28;20400;-84
2022/08/09 14:37:19;;;;;;;1.73;1.10;;;32.80;51.50;;;;;;8171012;28;20038;-86
2022/08/09 14:41:20;;;;;;;1.60;1.10;;;35.60;45.40;;;;;;8178669;28;20032;-84
2022/08/09 14:45:21;;;;;;;2.92;1.10;;;36.10;42.90;;;;;;8178028;28;20024;-84
2022/08/09 14:49:23;;;;;;;1.10;1.00;;;34.60;46.40;;;;;;8178299;28;20492;-85
2022/08/09 14:53:23;;;;;;;2.22;1.20;;;35.10;44.70;;;;;;8157156;22;20095;-79
2022/08/09 14:57:24;;;;;;;3.13;1.33;;;35.70;45.10;;;;;;8139584;28;20178;-79
2022/08/09 15:01:25;;;;;;;3.58;1.20;;;35.30;44.90;;;;;;8126890;29;20506;-79
2022/08/09 15:05:25;;;;;;;1.77;1.25;;;35.90;43.70;;;;;;8134931;28;20031;-79
2022/08/09 15:09:26;;;;;;;1.35;1.13;;;35.70;43.30;;;;;;8138025;28;20048;-79
2022/08/09 15:13:27;;;;;;;3.00;1.25;;;34.70;45.90;;;;;;8137823;28;20101;-78
2022/08/09 15:17:27;;;;;;;5.53;1.35;;;33.10;47.30;;;;;;8135770;28;20135;-78
2022/08/09 15:21:28;;;;;;;2.28;1.33;;;33.40;49.50;;;;;;8136055;28;20683;-78
2022/08/09 15:25:28;;;;;;;4.05;1.73;;;32.40;49.20;;;;;;8138072;28;20352;-79
2022/08/09 15:29:30;;;;;;;5.13;1.60;;;33.90;47.00;;;;;;8135773;28;20400;-78
2022/08/09 15:33:30;;;;;;;2.25;1.20;;;33.90;47.00;;;;;;8136595;28;20031;-78
2022/08/09 15:37:34;;;;;;;1.67;1.10;;;34.10;44.30;;;;;;8137422;29;20023;-79
2022/08/09 15:41:34;;;;;;;3.78;1.50;;;34.30;46.60;;;;;;8143152;28;20028;-78
2022/08/09 15:45:35;;;;;;;1.88;1.58;;;34.00;46.60;;;;;;8137665;28;20078;-78
2022/08/09 15:49:35;;;;;;;2.22;1.35;;;33.10;49.30;;;;;;8139945;28;20119;-78
2022/08/09 15:53:36;;;;;;;2.53;1.40;;;29.30;54.80;;;;;;8135642;28;20047;-78
2022/08/09 15:57:36;;;;;;;2.20;1.50;;;27.60;56.90;;;;;;8141881;28;20051;-78
2022/08/09 16:01:37;;;;;;;6.50;1.50;;;26.80;58.30;;;;;;8136212;28;20515;-78
2022/08/09 16:05:37;;;;;;;2.70;1.63;;;26.60;57.60;;;;;;8140622;29;20052;-78
2022/08/09 16:09:39;;;;;;;2.22;1.63;;;26.50;61.30;;;;;;8134906;28;20020;-78
2022/08/09 16:13:40;;;;;;;1.98;1.50;;;26.40;61.10;;;;;;8136054;28;20035;-78
2022/08/09 16:17:40;;;;;;;2.30;1.50;;;26.20;62.00;;;;;;8141536;28;20103;-78
2022/08/09 16:21:42;;;;;;;3.58;1.67;;;25.90;65.60;;;;;;8135657;28;20043;-78
2022/08/09 16:25:43;;;;;;;1.60;1.50;;;25.70;62.30;;;;;;8135545;28;20020;-78
2022/08/09 16:29:43;;;;;;;2.45;1.38;;;25.70;64.60;;;;;;8134410;28;20048;-78
2022/08/09 16:33:44;;;;;;;2.53;1.58;;;25.70;62.20;;;;;;8135268;28;20032;-78
2022/08/09 16:37:45;;;;;;;2.80;1.45;;;25.50;66.10;;;;;;8133479;29;20024;-78
2022/08/09 16:41:45;;;;;;;2.50;1.40;;;25.40;66.30;;;;;;8145091;28;20047;-78
2022/08/09 16:45:46;;;;;;;3.65;2.25;;;25.30;65.70;;;;;;8135042;28;20476;-78
2022/08/09 16:49:46;;;;;;;1.48;1.30;;;25.30;65.30;;;;;;8139977;29;20024;-78
2022/08/09 16:53:47;;;;;;;2.88;1.50;;;25.10;67.80;;;;;;8136223;28;20036;-78
2022/08/09 16:57:48;;;;;;;1.65;1.38;;;25.00;66.20;;;;;;8136711;28;20028;-78
2022/08/09 17:01:48;;;;;;;3.13;1.50;;;25.20;67.30;;;;;;8133437;28;20028;-78
2022/08/09 17:05:50;;;;;;;4.28;1.85;;;25.40;64.00;;;;;;8135705;28;20396;-78
2022/08/09 17:09:51;;;;;;;2.42;1.63;;;25.20;65.40;;;;;;8134999;28;20020;-78
2022/08/09 17:13:51;;;;;;;4.78;1.90;;;24.90;64.60;;;;;;8138734;28;20496;-78
2022/08/09 17:17:52;;;;;;;2.65;1.55;;;24.60;66.50;;;;;;8135973;28;20033;-78
2022/08/09 17:21:54;;;;;;;4.40;1.65;;;24.40;71.80;;;;;;8135549;28;20031;-78
2022/08/09 17:25:55;;;;;;;2.22;1.77;;;24.20;68.70;;;;;;8133814;28;20586;-78
2022/08/09 17:29:55;;;;;;;4.40;1.70;;;24.10;70.60;;;;;;8134405;28;20165;-78
2022/08/09 17:33:56;;;;;;;2.10;1.50;;;23.80;71.40;;;;;;8139877;28;20028;-78
2022/08/09 17:37:57;;;;;;;2.25;1.70;;;23.70;71.30;;;;;;8132714;28;20036;-78
2022/08/09 17:41:57;;;;;;;4.30;1.58;;;23.60;74.50;;;;;;8135451;28;20043;-78
2022/08/09 17:45:58;;;;;;;2.25;1.50;;;23.40;73.60;;;;;;8133408;28;20034;-79
2022/08/09 17:50:06;;;;;;;;;;;23.10;75.20;;;;;;8454813;27;20373;-79
2022/08/09 17:54:07;;;;;;;3.08;1.70;;;22.90;75.30;;;;;;8425083;28;19908;-79
2022/08/09 17:58:09;;;;;;;2.15;1.45;;;23.00;74.30;;;;;;8427895;28;20496;-79
2022/08/09 18:02:10;;;;;;;1.70;1.30;;;22.90;75.20;;;;;;8420425;28;20059;-79
2022/08/09 18:06:10;;;;;;;2.70;1.40;;;22.70;76.10;;;;;;8423346;28;20035;-79
2022/08/09 18:10:11;;;;;;;2.92;1.52;;;22.50;79.20;;;;;;8424237;28;20013;-79
2022/08/09 18:14:11;;;;;;;2.92;1.40;;;22.20;79.40;;;;;;8425156;28;20380;-79
2022/08/09 18:18:12;;;;;;;3.72;1.55;;;22.10;81.20;;;;;;8428575;28;20226;-79
2022/08/09 18:22:13;;;;;;;3.05;1.58;;;21.80;81.10;;;;;;8428859;28;20021;-79
2022/08/09 18:26:13;;;;;;;2.63;1.90;;;21.40;85.00;;;;;;8422960;28;20016;-80
2022/08/09 18:30:14;;;;;;;2.00;1.63;;;21.30;85.30;;;;;;8416273;28;20071;-79
2022/08/09 18:34:15;;;;;;;3.15;1.70;;;20.90;88.00;;;;;;8424401;28;20041;-79
2022/08/09 18:38:15;;;;;;;3.13;1.83;;;20.60;88.30;;;;;;8422555;28;20567;-79
2022/08/09 18:42:16;;;;;;;7.82;1.85;;;20.40;90.20;;;;;;8433617;28;20032;-79
2022/08/09 18:46:16;;;;;;;6.47;1.73;;;20.10;90.90;;;;;;8422529;28;20024;-79
2022/08/09 18:50:17;;;;;;;4.85;2.17;;;20.10;91.90;;;;;;8426896;28;20051;-79
2022/08/09 18:54:18;;;;;;;2.25;1.58;;;19.80;92.10;;;;;;8420407;28;20107;-79
2022/08/09 18:58:19;;;;;;;7.05;2.17;;;19.80;92.00;;;;;;8422327;28;20089;-79
2022/08/09 19:02:19;;;;;;;3.28;1.80;;;19.70;92.40;;;;;;8402214;28;20024;-79
2022/08/09 19:06:20;;;;;;;1.92;1.70;;;19.50;93.70;;;;;;8392499;28;20082;-78
2022/08/09 19:10:21;;;;;;;3.75;1.85;;;19.50;93.80;;;;;;8402025;28;20025;-79
2022/08/09 19:14:21;;;;;;;3.95;1.88;;;19.20;95.00;;;;;;8401547;28;20020;-79
2022/08/09 19:18:23;;;;;;;2.15;1.63;;;19.10;95.00;;;;;;8400352;28;20149;-80
2022/08/09 19:22:23;;;;;;;2.97;1.90;;;18.90;95.90;;;;;;8399469;28;20052;-79
2022/08/09 19:26:28;;;;;;;2.42;1.70;;;18.80;96.70;;;;;;8399231;28;20033;-79
2022/08/09 19:30:29;;;;;;;7.40;1.85;;;18.70;97.70;;;;;;8395103;28;20036;-79
2022/08/09 19:34:29;;;;;;;4.32;1.80;;;18.50;98.70;;;;;;8405046;28;20392;-79
2022/08/09 19:38:30;;;;;;;2.10;1.90;;;18.20;99.90;;;;;;8400168;28;20158;-80
2022/08/09 19:42:30;;;;;;;2.78;1.77;;;18.20;99.90;;;;;;8399567;28;20159;-79
2022/08/09 19:46:31;;;;;;;2.42;1.67;;;18.00;99.90;;;;;;8397661;28;20028;-80
2022/08/09 19:50:32;;;;;;;3.30;1.80;;;17.90;99.90;;;;;;8398440;28;20550;-79
2022/08/09 19:54:33;;;;;;;3.38;1.90;;;17.90;99.90;;;;;;8398247;28;20027;-79
2022/08/09 19:58:33;;;;;;;6.22;2.20;;;17.80;99.90;;;;;;8401947;28;20077;-79
2022/08/09 20:02:34;;;;;;;4.05;1.77;;;17.50;99.90;;;;;;8403766;28;20027;-79
2022/08/09 20:06:35;;;;;;;6.03;2.10;;;17.40;99.90;;;;;;8404202;28;20020;-79
2022/08/09 20:10:35;;;;;;;2.53;2.00;;;17.20;99.90;;;;;;8396990;28;20016;-79
2022/08/09 20:14:36;;;;;;;3.08;1.75;;;17.20;99.90;;;;;;8397016;28;20024;-79
2022/08/09 20:18:36;;;;;;;3.47;2.10;;;17.20;99.90;;;;;;8396164;28;20074;-79
2022/08/09 20:22:37;;;;;;;5.57;1.90;;;17.20;99.90;;;;;;8397749;28;20039;-79
2022/08/09 20:26:37;;;;;;;2.53;2.03;;;17.20;99.90;;;;;;8395679;28;20031;-79
2022/08/09 20:30:38;;;;;;;2.22;1.90;;;17.00;99.90;;;;;;8398442;28;20232;-79
2022/08/09 20:34:39;;;;;;;4.38;2.00;;;16.80;99.90;;;;;;8396451;28;20016;-79
2022/08/09 20:38:41;;;;;;;4.90;2.20;;;16.60;99.90;;;;;;8398109;28;20138;-80
2022/08/09 20:42:41;;;;;;;2.13;1.77;;;16.50;99.90;;;;;;8396761;28;20024;-79
2022/08/09 20:46:42;;;;;;;3.38;2.17;;;16.50;99.90;;;;;;8402775;28;20415;-79
2022/08/09 20:50:44;;;;;;;4.75;1.90;;;16.40;99.90;;;;;;8393692;28;20514;-79
2022/08/09 20:54:44;;;;;;;3.55;2.00;;;16.50;99.90;;;;;;8400662;28;20490;-79